source: subversion/applications/editors/osm-editor/010505_osm.gpx @ 34668

Last change on this file since 34668 was 664, checked in by nick, 14 years ago

Changed save/load to always 'OSM' mode; changed example GPX files

File size: 56.3 KB
Line 
1<!-- This data is copyright Nick Whitelegg and licenced under the
2     Creative Commons Licence (Attribution/ShareAlike) v2.0. -->
3<gpx version="1.0" creator="Hogweed Software Freemap::Components class" xmlns="http://www.topografix.com/GPX/1/0">
4<wpt lat="50.8884" lon="-1.52896">
5<name>001</name>
6<type>waypoint</type>
7</wpt>
8<wpt lat="50.8851" lon="-1.52646">
9<name>002</name>
10<type>waypoint</type>
11</wpt>
12<wpt lat="50.8836" lon="-1.52535">
13<name>003</name>
14<type>bridge</type>
15</wpt>
16<wpt lat="50.8758" lon="-1.52601">
17<name>004</name>
18<type>bridge</type>
19</wpt>
20<wpt lat="50.8715" lon="-1.56406">
21<name>005</name>
22<type>car park</type>
23</wpt>
24<wpt lat="50.8722" lon="-1.56931">
25<name>006</name>
26<type>car park</type>
27</wpt>
28<wpt lat="50.8651" lon="-1.57337">
29<name>007</name>
30<type>car park</type>
31</wpt>
32<wpt lat="50.8634" lon="-1.56993">
33<name>008</name>
34<type>waypoint</type>
35</wpt>
36<wpt lat="50.8575" lon="-1.56043">
37<name>009</name>
38<type>bridge</type>
39</wpt>
40<wpt lat="50.8583" lon="-1.54462">
41<name>010</name>
42<type>waypoint</type>
43</wpt>
44<wpt lat="50.8608" lon="-1.54089">
45<name>011</name>
46<type>bridge</type>
47</wpt>
48<wpt lat="50.8655" lon="-1.53995">
49<name>012</name>
50<type>waypoint</type>
51</wpt>
52<wpt lat="50.8732" lon="-1.51219">
53<name>013</name>
54<type>bridge</type>
55</wpt>
56<wpt lat="50.8842" lon="-1.52361">
57<name>014</name>
58<type>waypoint</type>
59</wpt>
60<wpt lat="50.8881" lon="-1.52864">
61<name>ASH</name>
62<type>campsite</type>
63</wpt>
64<wpt lat="50.8801" lon="-1.52597">
65<name>ASH LODGE</name>
66<type>waypoint</type>
67</wpt>
68<wpt lat="50.8901" lon="-1.52658">
69<name>ASHURST</name>
70<type>waypoint</type>
71</wpt>
72<wpt lat="50.8758" lon="-1.52608">
73<name>BOG</name>
74<type>caution</type>
75</wpt>
76<wpt lat="50.8716" lon="-1.56885">
77<name>BOLT B</name>
78<type>waypoint</type>
79</wpt>
80<wpt lat="50.8663" lon="-1.53261">
81<name>MATLEY WD</name>
82<type>campsite</type>
83</wpt>
84<wpt lat="50.8907" lon="-1.52692">
85<name>NEW F</name>
86<type>pub</type>
87</wpt>
88<wpt lat="50.8705" lon="-1.5623">
89<name>TRIG</name>
90<type>waypoint</type>
91</wpt>
92<trk>
93<number>0</number>
94<extensions>
95</extensions>
96<trkseg>
97<trkpt lat="50.8898" lon="-1.52641">
98<time>2005-05-01T13:56:57Z</time>
99</trkpt>
100<trkpt lat="50.8898" lon="-1.52656">
101<time>2005-05-01T13:57:16Z</time>
102</trkpt>
103<trkpt lat="50.8899" lon="-1.52654">
104<time>2005-05-01T13:57:36Z</time>
105</trkpt>
106<trkpt lat="50.89" lon="-1.52661">
107<time>2005-05-01T13:57:54Z</time>
108</trkpt>
109<trkpt lat="50.8901" lon="-1.52661">
110<time>2005-05-01T13:58:17Z</time>
111</trkpt>
112<trkpt lat="50.8901" lon="-1.52659">
113<time>2005-05-01T13:58:28Z</time>
114</trkpt>
115<trkpt lat="50.8903" lon="-1.52674">
116<time>2005-05-01T13:58:47Z</time>
117</trkpt>
118<trkpt lat="50.8906" lon="-1.5268">
119<time>2005-05-01T13:59:10Z</time>
120</trkpt>
121<trkpt lat="50.8907" lon="-1.52691">
122<time>2005-05-01T13:59:30Z</time>
123</trkpt>
124<trkpt lat="50.8907" lon="-1.52695">
125<time>2005-05-01T13:59:36Z</time>
126</trkpt>
127<trkpt lat="50.8906" lon="-1.52727">
128<time>2005-05-01T13:59:52Z</time>
129</trkpt>
130<trkpt lat="50.8906" lon="-1.52772">
131<time>2005-05-01T14:00:11Z</time>
132</trkpt>
133<trkpt lat="50.8903" lon="-1.52807">
134<time>2005-05-01T14:00:32Z</time>
135</trkpt>
136<trkpt lat="50.8901" lon="-1.52841">
137<time>2005-05-01T14:00:52Z</time>
138</trkpt>
139<trkpt lat="50.89" lon="-1.52888">
140<time>2005-05-01T14:01:12Z</time>
141</trkpt>
142<trkpt lat="50.8899" lon="-1.52895">
143<time>2005-05-01T14:01:30Z</time>
144</trkpt>
145<trkpt lat="50.8898" lon="-1.52888">
146<time>2005-05-01T14:01:51Z</time>
147</trkpt>
148<trkpt lat="50.8898" lon="-1.5289">
149<time>2005-05-01T14:01:56Z</time>
150</trkpt>
151<trkpt lat="50.8895" lon="-1.52897">
152<time>2005-05-01T14:02:15Z</time>
153</trkpt>
154<trkpt lat="50.8892" lon="-1.52899">
155<time>2005-05-01T14:02:36Z</time>
156</trkpt>
157<trkpt lat="50.8888" lon="-1.52899">
158<time>2005-05-01T14:02:56Z</time>
159</trkpt>
160<trkpt lat="50.8885" lon="-1.52892">
161<time>2005-05-01T14:03:18Z</time>
162</trkpt>
163<trkpt lat="50.8884" lon="-1.52895">
164<time>2005-05-01T14:03:35Z</time>
165</trkpt>
166<trkpt lat="50.8883" lon="-1.52882">
167<time>2005-05-01T14:03:46Z</time>
168</trkpt>
169<trkpt lat="50.8881" lon="-1.52865">
170<time>2005-05-01T14:04:02Z</time>
171</trkpt>
172<trkpt lat="50.8881" lon="-1.52862">
173<time>2005-05-01T14:04:19Z</time>
174</trkpt>
175<trkpt lat="50.8879" lon="-1.52841">
176<time>2005-05-01T14:04:35Z</time>
177</trkpt>
178<trkpt lat="50.8877" lon="-1.52826">
179<time>2005-05-01T14:04:57Z</time>
180</trkpt>
181<trkpt lat="50.8876" lon="-1.52813">
182<time>2005-05-01T14:05:16Z</time>
183</trkpt>
184<trkpt lat="50.8873" lon="-1.52789">
185<time>2005-05-01T14:05:39Z</time>
186</trkpt>
187<trkpt lat="50.8871" lon="-1.52766">
188<time>2005-05-01T14:06:02Z</time>
189</trkpt>
190<trkpt lat="50.8866" lon="-1.52744">
191<time>2005-05-01T14:06:28Z</time>
192</trkpt>
193<trkpt lat="50.8864" lon="-1.52738">
194<time>2005-05-01T14:06:48Z</time>
195</trkpt>
196<trkpt lat="50.886" lon="-1.52736">
197<time>2005-05-01T14:07:12Z</time>
198</trkpt>
199<trkpt lat="50.8855" lon="-1.52697">
200<time>2005-05-01T14:07:51Z</time>
201</trkpt>
202<trkpt lat="50.8853" lon="-1.52669">
203<time>2005-05-01T14:08:07Z</time>
204</trkpt>
205<trkpt lat="50.8851" lon="-1.52643">
206<time>2005-05-01T14:08:26Z</time>
207</trkpt>
208<trkpt lat="50.885" lon="-1.52643">
209<time>2005-05-01T14:08:46Z</time>
210</trkpt>
211<trkpt lat="50.885" lon="-1.52635">
212<time>2005-05-01T14:08:56Z</time>
213</trkpt>
214<trkpt lat="50.8846" lon="-1.52607">
215<time>2005-05-01T14:09:23Z</time>
216</trkpt>
217<trkpt lat="50.884" lon="-1.52564">
218<time>2005-05-01T14:10:05Z</time>
219</trkpt>
220<trkpt lat="50.8837" lon="-1.52538">
221<time>2005-05-01T14:10:27Z</time>
222</trkpt>
223<trkpt lat="50.8836" lon="-1.52534">
224<time>2005-05-01T14:10:38Z</time>
225</trkpt>
226<trkpt lat="50.8836" lon="-1.5254">
227<time>2005-05-01T14:10:43Z</time>
228</trkpt>
229<trkpt lat="50.8833" lon="-1.52564">
230<time>2005-05-01T14:11:08Z</time>
231</trkpt>
232<trkpt lat="50.8827" lon="-1.52571">
233<time>2005-05-01T14:11:43Z</time>
234</trkpt>
235<trkpt lat="50.8827" lon="-1.52566">
236<time>2005-05-01T14:11:58Z</time>
237</trkpt>
238<trkpt lat="50.8824" lon="-1.52594">
239<time>2005-05-01T14:12:26Z</time>
240</trkpt>
241<trkpt lat="50.8818" lon="-1.52643">
242<time>2005-05-01T14:13:05Z</time>
243</trkpt>
244<trkpt lat="50.8815" lon="-1.52661">
245<time>2005-05-01T14:13:31Z</time>
246</trkpt>
247<trkpt lat="50.8811" lon="-1.5268">
248<time>2005-05-01T14:14:00Z</time>
249</trkpt>
250<trkpt lat="50.8811" lon="-1.52686">
251<time>2005-05-01T14:14:08Z</time>
252</trkpt>
253<trkpt lat="50.881" lon="-1.52697">
254<time>2005-05-01T14:14:15Z</time>
255</trkpt>
256<trkpt lat="50.881" lon="-1.52742">
257<time>2005-05-01T14:14:36Z</time>
258</trkpt>
259<trkpt lat="50.8809" lon="-1.52772">
260<time>2005-05-01T14:15:06Z</time>
261</trkpt>
262<trkpt lat="50.8807" lon="-1.52781">
263<time>2005-05-01T14:15:20Z</time>
264</trkpt>
265<trkpt lat="50.8804" lon="-1.52783">
266<time>2005-05-01T14:15:38Z</time>
267</trkpt>
268<trkpt lat="50.8803" lon="-1.52772">
269<time>2005-05-01T14:16:07Z</time>
270</trkpt>
271<trkpt lat="50.8801" lon="-1.52796">
272<time>2005-05-01T14:16:40Z</time>
273</trkpt>
274<trkpt lat="50.88" lon="-1.52817">
275<time>2005-05-01T14:16:52Z</time>
276</trkpt>
277<trkpt lat="50.8796" lon="-1.52815">
278<time>2005-05-01T14:17:14Z</time>
279</trkpt>
280<trkpt lat="50.8793" lon="-1.52815">
281<time>2005-05-01T14:17:39Z</time>
282</trkpt>
283<trkpt lat="50.879" lon="-1.52807">
284<time>2005-05-01T14:18:02Z</time>
285</trkpt>
286<trkpt lat="50.8786" lon="-1.52792">
287<time>2005-05-01T14:18:24Z</time>
288</trkpt>
289<trkpt lat="50.8784" lon="-1.52774">
290<time>2005-05-01T14:18:42Z</time>
291</trkpt>
292<trkpt lat="50.8783" lon="-1.52772">
293<time>2005-05-01T14:18:58Z</time>
294</trkpt>
295<trkpt lat="50.8783" lon="-1.52779">
296<time>2005-05-01T14:19:22Z</time>
297</trkpt>
298<trkpt lat="50.8783" lon="-1.52779">
299<time>2005-05-01T14:25:32Z</time>
300</trkpt>
301<trkpt lat="50.8782" lon="-1.52787">
302<time>2005-05-01T14:25:49Z</time>
303</trkpt>
304<trkpt lat="50.8781" lon="-1.52802">
305<time>2005-05-01T14:26:05Z</time>
306</trkpt>
307<trkpt lat="50.8779" lon="-1.52813">
308<time>2005-05-01T14:26:20Z</time>
309</trkpt>
310<trkpt lat="50.8779" lon="-1.52817">
311<time>2005-05-01T14:26:40Z</time>
312</trkpt>
313<trkpt lat="50.8778" lon="-1.52822">
314<time>2005-05-01T14:26:57Z</time>
315</trkpt>
316<trkpt lat="50.8777" lon="-1.5283">
317<time>2005-05-01T14:27:35Z</time>
318</trkpt>
319<trkpt lat="50.8774" lon="-1.52817">
320<time>2005-05-01T14:27:57Z</time>
321</trkpt>
322<trkpt lat="50.8772" lon="-1.52802">
323<time>2005-05-01T14:28:13Z</time>
324</trkpt>
325<trkpt lat="50.877" lon="-1.52779">
326<time>2005-05-01T14:28:31Z</time>
327</trkpt>
328<trkpt lat="50.8768" lon="-1.52746">
329<time>2005-05-01T14:28:51Z</time>
330</trkpt>
331<trkpt lat="50.8768" lon="-1.52736">
332<time>2005-05-01T14:29:09Z</time>
333</trkpt>
334<trkpt lat="50.8766" lon="-1.52721">
335<time>2005-05-01T14:30:01Z</time>
336</trkpt>
337<trkpt lat="50.8764" lon="-1.52691">
338<time>2005-05-01T14:30:21Z</time>
339</trkpt>
340<trkpt lat="50.8762" lon="-1.52659">
341<time>2005-05-01T14:30:39Z</time>
342</trkpt>
343<trkpt lat="50.876" lon="-1.52628">
344<time>2005-05-01T14:31:00Z</time>
345</trkpt>
346<trkpt lat="50.876" lon="-1.52628">
347<time>2005-05-01T14:31:02Z</time>
348</trkpt>
349<trkpt lat="50.8759" lon="-1.52637">
350<time>2005-05-01T14:31:11Z</time>
351</trkpt>
352<trkpt lat="50.8759" lon="-1.52648">
353<time>2005-05-01T14:31:19Z</time>
354</trkpt>
355<trkpt lat="50.8758" lon="-1.52616">
356<time>2005-05-01T14:31:35Z</time>
357</trkpt>
358<trkpt lat="50.8758" lon="-1.52598">
359<time>2005-05-01T14:31:50Z</time>
360</trkpt>
361<trkpt lat="50.8758" lon="-1.52607">
362<time>2005-05-01T14:32:11Z</time>
363</trkpt>
364<trkpt lat="50.8758" lon="-1.52603">
365<time>2005-05-01T14:32:46Z</time>
366</trkpt>
367<trkpt lat="50.8757" lon="-1.52592">
368<time>2005-05-01T14:33:15Z</time>
369</trkpt>
370<trkpt lat="50.8757" lon="-1.52581">
371<time>2005-05-01T14:33:36Z</time>
372</trkpt>
373<trkpt lat="50.8757" lon="-1.52579">
374<time>2005-05-01T14:34:22Z</time>
375</trkpt>
376<trkpt lat="50.8756" lon="-1.52571">
377<time>2005-05-01T14:36:35Z</time>
378</trkpt>
379<trkpt lat="50.8756" lon="-1.5256">
380<time>2005-05-01T14:36:41Z</time>
381</trkpt>
382<trkpt lat="50.8754" lon="-1.52523">
383<time>2005-05-01T14:37:03Z</time>
384</trkpt>
385<trkpt lat="50.8753" lon="-1.52508">
386<time>2005-05-01T14:37:13Z</time>
387</trkpt>
388<trkpt lat="50.8753" lon="-1.525">
389<time>2005-05-01T14:37:18Z</time>
390</trkpt>
391<trkpt lat="50.875" lon="-1.52459">
392<time>2005-05-01T14:37:41Z</time>
393</trkpt>
394<trkpt lat="50.8748" lon="-1.52429">
395<time>2005-05-01T14:38:01Z</time>
396</trkpt>
397<trkpt lat="50.8745" lon="-1.52405">
398<time>2005-05-01T14:38:21Z</time>
399</trkpt>
400<trkpt lat="50.8743" lon="-1.52384">
401<time>2005-05-01T14:38:42Z</time>
402</trkpt>
403<trkpt lat="50.8741" lon="-1.52373">
404<time>2005-05-01T14:39:04Z</time>
405</trkpt>
406<trkpt lat="50.8741" lon="-1.52373">
407<time>2005-05-01T14:39:06Z</time>
408</trkpt>
409<trkpt lat="50.8738" lon="-1.52356">
410<time>2005-05-01T14:39:27Z</time>
411</trkpt>
412<trkpt lat="50.8737" lon="-1.52332">
413<time>2005-05-01T14:39:49Z</time>
414</trkpt>
415<trkpt lat="50.8737" lon="-1.52332">
416<time>2005-05-01T14:40:01Z</time>
417</trkpt>
418<trkpt lat="50.8736" lon="-1.5233">
419<time>2005-05-01T14:40:16Z</time>
420</trkpt>
421<trkpt lat="50.8733" lon="-1.52328">
422<time>2005-05-01T14:40:39Z</time>
423</trkpt>
424<trkpt lat="50.873" lon="-1.52339">
425<time>2005-05-01T14:41:00Z</time>
426</trkpt>
427<trkpt lat="50.8727" lon="-1.52365">
428<time>2005-05-01T14:41:21Z</time>
429</trkpt>
430<trkpt lat="50.8725" lon="-1.5239">
431<time>2005-05-01T14:41:44Z</time>
432</trkpt>
433<trkpt lat="50.8722" lon="-1.52412">
434<time>2005-05-01T14:42:07Z</time>
435</trkpt>
436<trkpt lat="50.8719" lon="-1.52435">
437<time>2005-05-01T14:42:31Z</time>
438</trkpt>
439<trkpt lat="50.8716" lon="-1.5245">
440<time>2005-05-01T14:42:51Z</time>
441</trkpt>
442<trkpt lat="50.8713" lon="-1.5247">
443<time>2005-05-01T14:43:15Z</time>
444</trkpt>
445<trkpt lat="50.871" lon="-1.52493">
446<time>2005-05-01T14:43:40Z</time>
447</trkpt>
448<trkpt lat="50.8709" lon="-1.52515">
449<time>2005-05-01T14:44:13Z</time>
450</trkpt>
451<trkpt lat="50.871" lon="-1.52521">
452<time>2005-05-01T14:44:37Z</time>
453</trkpt>
454<trkpt lat="50.8709" lon="-1.52562">
455<time>2005-05-01T14:45:03Z</time>
456</trkpt>
457<trkpt lat="50.8708" lon="-1.52607">
458<time>2005-05-01T14:45:22Z</time>
459</trkpt>
460<trkpt lat="50.8707" lon="-1.52652">
461<time>2005-05-01T14:45:45Z</time>
462</trkpt>
463<trkpt lat="50.8705" lon="-1.52697">
464<time>2005-05-01T14:46:11Z</time>
465</trkpt>
466<trkpt lat="50.8704" lon="-1.52725">
467<time>2005-05-01T14:46:26Z</time>
468</trkpt>
469<trkpt lat="50.8703" lon="-1.52768">
470<time>2005-05-01T14:46:47Z</time>
471</trkpt>
472<trkpt lat="50.8703" lon="-1.52819">
473<time>2005-05-01T14:47:10Z</time>
474</trkpt>
475<trkpt lat="50.8703" lon="-1.5286">
476<time>2005-05-01T14:47:29Z</time>
477</trkpt>
478<trkpt lat="50.8703" lon="-1.52907">
479<time>2005-05-01T14:47:52Z</time>
480</trkpt>
481<trkpt lat="50.8702" lon="-1.52955">
482<time>2005-05-01T14:48:14Z</time>
483</trkpt>
484<trkpt lat="50.8702" lon="-1.52974">
485<time>2005-05-01T14:48:35Z</time>
486</trkpt>
487<trkpt lat="50.8702" lon="-1.53015">
488<time>2005-05-01T14:48:53Z</time>
489</trkpt>
490<trkpt lat="50.8701" lon="-1.53066">
491<time>2005-05-01T14:49:17Z</time>
492</trkpt>
493<trkpt lat="50.8699" lon="-1.53105">
494<time>2005-05-01T14:49:37Z</time>
495</trkpt>
496<trkpt lat="50.8698" lon="-1.5315">
497<time>2005-05-01T14:49:58Z</time>
498</trkpt>
499<trkpt lat="50.8696" lon="-1.53199">
500<time>2005-05-01T14:50:21Z</time>
501</trkpt>
502<trkpt lat="50.8695" lon="-1.53236">
503<time>2005-05-01T14:50:38Z</time>
504</trkpt>
505<trkpt lat="50.8694" lon="-1.53279">
506<time>2005-05-01T14:50:59Z</time>
507</trkpt>
508<trkpt lat="50.8692" lon="-1.53324">
509<time>2005-05-01T14:51:22Z</time>
510</trkpt>
511<trkpt lat="50.8689" lon="-1.53354">
512<time>2005-05-01T14:51:44Z</time>
513</trkpt>
514<trkpt lat="50.8686" lon="-1.53384">
515<time>2005-05-01T14:52:08Z</time>
516</trkpt>
517<trkpt lat="50.8683" lon="-1.53416">
518<time>2005-05-01T14:52:34Z</time>
519</trkpt>
520<trkpt lat="50.868" lon="-1.53429">
521<time>2005-05-01T14:52:56Z</time>
522</trkpt>
523<trkpt lat="50.8678" lon="-1.53435">
524<time>2005-05-01T14:53:07Z</time>
525</trkpt>
526<trkpt lat="50.8675" lon="-1.53457">
527<time>2005-05-01T14:53:27Z</time>
528</trkpt>
529<trkpt lat="50.8673" lon="-1.5348">
530<time>2005-05-01T14:53:50Z</time>
531</trkpt>
532<trkpt lat="50.867" lon="-1.53498">
533<time>2005-05-01T14:54:12Z</time>
534</trkpt>
535<trkpt lat="50.8669" lon="-1.53502">
536<time>2005-05-01T14:54:28Z</time>
537</trkpt>
538<trkpt lat="50.8667" lon="-1.53504">
539<time>2005-05-01T14:54:45Z</time>
540</trkpt>
541<trkpt lat="50.8665" lon="-1.53513">
542<time>2005-05-01T14:55:02Z</time>
543</trkpt>
544<trkpt lat="50.8663" lon="-1.53525">
545<time>2005-05-01T14:55:18Z</time>
546</trkpt>
547<trkpt lat="50.8661" lon="-1.5354">
548<time>2005-05-01T14:55:34Z</time>
549</trkpt>
550<trkpt lat="50.8658" lon="-1.5356">
551<time>2005-05-01T14:55:53Z</time>
552</trkpt>
553<trkpt lat="50.8657" lon="-1.53568">
554<time>2005-05-01T14:56:08Z</time>
555</trkpt>
556<trkpt lat="50.8657" lon="-1.5357">
557<time>2005-05-01T14:56:10Z</time>
558</trkpt>
559<trkpt lat="50.8656" lon="-1.53581">
560<time>2005-05-01T14:56:23Z</time>
561</trkpt>
562<trkpt lat="50.8656" lon="-1.53581">
563<time>2005-05-01T14:56:24Z</time>
564</trkpt>
565<trkpt lat="50.8656" lon="-1.53622">
566<time>2005-05-01T14:56:44Z</time>
567</trkpt>
568<trkpt lat="50.8656" lon="-1.53673">
569<time>2005-05-01T14:57:06Z</time>
570</trkpt>
571<trkpt lat="50.8656" lon="-1.53721">
572<time>2005-05-01T14:57:27Z</time>
573</trkpt>
574<trkpt lat="50.8656" lon="-1.53779">
575<time>2005-05-01T14:57:51Z</time>
576</trkpt>
577<trkpt lat="50.8656" lon="-1.53834">
578<time>2005-05-01T14:58:17Z</time>
579</trkpt>
580<trkpt lat="50.8656" lon="-1.53869">
581<time>2005-05-01T14:58:32Z</time>
582</trkpt>
583<trkpt lat="50.8656" lon="-1.53929">
584<time>2005-05-01T14:58:57Z</time>
585</trkpt>
586<trkpt lat="50.8656" lon="-1.53976">
587<time>2005-05-01T14:59:18Z</time>
588</trkpt>
589<trkpt lat="50.8656" lon="-1.53991">
590<time>2005-05-01T14:59:32Z</time>
591</trkpt>
592<trkpt lat="50.8655" lon="-1.54023">
593<time>2005-05-01T14:59:52Z</time>
594</trkpt>
595<trkpt lat="50.8656" lon="-1.54062">
596<time>2005-05-01T15:00:09Z</time>
597</trkpt>
598<trkpt lat="50.8656" lon="-1.54109">
599<time>2005-05-01T15:00:29Z</time>
600</trkpt>
601<trkpt lat="50.8656" lon="-1.54158">
602<time>2005-05-01T15:00:51Z</time>
603</trkpt>
604<trkpt lat="50.8657" lon="-1.54201">
605<time>2005-05-01T15:01:11Z</time>
606</trkpt>
607<trkpt lat="50.8657" lon="-1.54212">
608<time>2005-05-01T15:01:17Z</time>
609</trkpt>
610<trkpt lat="50.8658" lon="-1.54253">
611<time>2005-05-01T15:01:37Z</time>
612</trkpt>
613<trkpt lat="50.8659" lon="-1.54287">
614<time>2005-05-01T15:01:54Z</time>
615</trkpt>
616<trkpt lat="50.8659" lon="-1.54341">
617<time>2005-05-01T15:02:18Z</time>
618</trkpt>
619<trkpt lat="50.866" lon="-1.54386">
620<time>2005-05-01T15:02:40Z</time>
621</trkpt>
622<trkpt lat="50.8662" lon="-1.54427">
623<time>2005-05-01T15:03:01Z</time>
624</trkpt>
625<trkpt lat="50.8663" lon="-1.54463">
626<time>2005-05-01T15:03:21Z</time>
627</trkpt>
628<trkpt lat="50.8664" lon="-1.545">
629<time>2005-05-01T15:03:41Z</time>
630</trkpt>
631<trkpt lat="50.8666" lon="-1.54534">
632<time>2005-05-01T15:04:00Z</time>
633</trkpt>
634<trkpt lat="50.8669" lon="-1.54573">
635<time>2005-05-01T15:04:25Z</time>
636</trkpt>
637<trkpt lat="50.867" lon="-1.54607">
638<time>2005-05-01T15:04:43Z</time>
639</trkpt>
640<trkpt lat="50.8671" lon="-1.54643">
641<time>2005-05-01T15:05:03Z</time>
642</trkpt>
643<trkpt lat="50.8673" lon="-1.54688">
644<time>2005-05-01T15:05:25Z</time>
645</trkpt>
646<trkpt lat="50.8674" lon="-1.54725">
647<time>2005-05-01T15:05:44Z</time>
648</trkpt>
649<trkpt lat="50.8675" lon="-1.54748">
650<time>2005-05-01T15:05:59Z</time>
651</trkpt>
652<trkpt lat="50.8677" lon="-1.54783">
653<time>2005-05-01T15:06:18Z</time>
654</trkpt>
655<trkpt lat="50.8678" lon="-1.54821">
656<time>2005-05-01T15:06:38Z</time>
657</trkpt>
658<trkpt lat="50.8679" lon="-1.5486">
659<time>2005-05-01T15:06:58Z</time>
660</trkpt>
661<trkpt lat="50.868" lon="-1.54888">
662<time>2005-05-01T15:07:15Z</time>
663</trkpt>
664<trkpt lat="50.868" lon="-1.5489">
665<time>2005-05-01T15:07:27Z</time>
666</trkpt>
667<trkpt lat="50.8681" lon="-1.54901">
668<time>2005-05-01T15:07:33Z</time>
669</trkpt>
670<trkpt lat="50.8682" lon="-1.54948">
671<time>2005-05-01T15:07:54Z</time>
672</trkpt>
673<trkpt lat="50.8682" lon="-1.54985">
674<time>2005-05-01T15:08:10Z</time>
675</trkpt>
676<trkpt lat="50.8682" lon="-1.55027">
677<time>2005-05-01T15:08:30Z</time>
678</trkpt>
679<trkpt lat="50.8683" lon="-1.55066">
680<time>2005-05-01T15:08:49Z</time>
681</trkpt>
682<trkpt lat="50.8683" lon="-1.55096">
683<time>2005-05-01T15:09:04Z</time>
684</trkpt>
685<trkpt lat="50.8684" lon="-1.55128">
686<time>2005-05-01T15:09:21Z</time>
687</trkpt>
688<trkpt lat="50.8684" lon="-1.55141">
689<time>2005-05-01T15:09:35Z</time>
690</trkpt>
691<trkpt lat="50.8684" lon="-1.55186">
692<time>2005-05-01T15:09:55Z</time>
693</trkpt>
694<trkpt lat="50.8685" lon="-1.55225">
695<time>2005-05-01T15:10:13Z</time>
696</trkpt>
697<trkpt lat="50.8685" lon="-1.55263">
698<time>2005-05-01T15:10:30Z</time>
699</trkpt>
700<trkpt lat="50.8686" lon="-1.553">
701<time>2005-05-01T15:10:49Z</time>
702</trkpt>
703<trkpt lat="50.8687" lon="-1.55347">
704<time>2005-05-01T15:11:10Z</time>
705</trkpt>
706<trkpt lat="50.8687" lon="-1.55358">
707<time>2005-05-01T15:11:27Z</time>
708</trkpt>
709<trkpt lat="50.8688" lon="-1.55381">
710<time>2005-05-01T15:11:41Z</time>
711</trkpt>
712<trkpt lat="50.8689" lon="-1.55416">
713<time>2005-05-01T15:11:58Z</time>
714</trkpt>
715<trkpt lat="50.869" lon="-1.55452">
716<time>2005-05-01T15:12:16Z</time>
717</trkpt>
718<trkpt lat="50.8692" lon="-1.55484">
719<time>2005-05-01T15:12:35Z</time>
720</trkpt>
721<trkpt lat="50.8693" lon="-1.55515">
722<time>2005-05-01T15:12:53Z</time>
723</trkpt>
724<trkpt lat="50.8694" lon="-1.55542">
725<time>2005-05-01T15:13:13Z</time>
726</trkpt>
727<trkpt lat="50.8694" lon="-1.55564">
728<time>2005-05-01T15:13:29Z</time>
729</trkpt>
730<trkpt lat="50.8695" lon="-1.55592">
731<time>2005-05-01T15:13:45Z</time>
732</trkpt>
733<trkpt lat="50.8695" lon="-1.556">
734<time>2005-05-01T15:14:02Z</time>
735</trkpt>
736<trkpt lat="50.8695" lon="-1.55609">
737<time>2005-05-01T15:14:11Z</time>
738</trkpt>
739<trkpt lat="50.8697" lon="-1.55643">
740<time>2005-05-01T15:14:29Z</time>
741</trkpt>
742<trkpt lat="50.8697" lon="-1.55665">
743<time>2005-05-01T15:14:45Z</time>
744</trkpt>
745<trkpt lat="50.8698" lon="-1.5569">
746<time>2005-05-01T15:15:06Z</time>
747</trkpt>
748<trkpt lat="50.8698" lon="-1.5569">
749<time>2005-05-01T15:15:28Z</time>
750</trkpt>
751<trkpt lat="50.8698" lon="-1.55712">
752<time>2005-05-01T15:15:42Z</time>
753</trkpt>
754<trkpt lat="50.8698" lon="-1.55742">
755<time>2005-05-01T15:16:01Z</time>
756</trkpt>
757<trkpt lat="50.8699" lon="-1.55763">
758<time>2005-05-01T15:16:20Z</time>
759</trkpt>
760<trkpt lat="50.8699" lon="-1.55781">
761<time>2005-05-01T15:16:28Z</time>
762</trkpt>
763<trkpt lat="50.8699" lon="-1.55802">
764<time>2005-05-01T15:16:43Z</time>
765</trkpt>
766<trkpt lat="50.87" lon="-1.55828">
767<time>2005-05-01T15:17:27Z</time>
768</trkpt>
769<trkpt lat="50.8701" lon="-1.55875">
770<time>2005-05-01T15:17:50Z</time>
771</trkpt>
772<trkpt lat="50.8702" lon="-1.55914">
773<time>2005-05-01T15:18:10Z</time>
774</trkpt>
775<trkpt lat="50.8702" lon="-1.55914">
776<time>2005-05-01T15:18:13Z</time>
777</trkpt>
778<trkpt lat="50.8704" lon="-1.55942">
779<time>2005-05-01T15:18:33Z</time>
780</trkpt>
781<trkpt lat="50.8704" lon="-1.55944">
782<time>2005-05-01T15:18:35Z</time>
783</trkpt>
784<trkpt lat="50.8704" lon="-1.55946">
785<time>2005-05-01T15:18:38Z</time>
786</trkpt>
787<trkpt lat="50.8705" lon="-1.55948">
788<time>2005-05-01T15:18:52Z</time>
789</trkpt>
790<trkpt lat="50.8705" lon="-1.55944">
791<time>2005-05-01T15:20:11Z</time>
792</trkpt>
793<trkpt lat="50.8705" lon="-1.55948">
794<time>2005-05-01T15:24:34Z</time>
795</trkpt>
796<trkpt lat="50.8705" lon="-1.55991">
797<time>2005-05-01T15:24:54Z</time>
798</trkpt>
799<trkpt lat="50.8706" lon="-1.56036">
800<time>2005-05-01T15:25:15Z</time>
801</trkpt>
802<trkpt lat="50.8707" lon="-1.56085">
803<time>2005-05-01T15:25:38Z</time>
804</trkpt>
805<trkpt lat="50.8708" lon="-1.56122">
806<time>2005-05-01T15:25:58Z</time>
807</trkpt>
808<trkpt lat="50.8708" lon="-1.56124">
809<time>2005-05-01T15:26:10Z</time>
810</trkpt>
811<trkpt lat="50.8708" lon="-1.56137">
812<time>2005-05-01T15:26:29Z</time>
813</trkpt>
814<trkpt lat="50.8708" lon="-1.56135">
815<time>2005-05-01T15:27:27Z</time>
816</trkpt>
817<trkpt lat="50.8709" lon="-1.56175">
818<time>2005-05-01T15:27:47Z</time>
819</trkpt>
820<trkpt lat="50.871" lon="-1.56208">
821<time>2005-05-01T15:28:07Z</time>
822</trkpt>
823<trkpt lat="50.8711" lon="-1.56229">
824<time>2005-05-01T15:28:39Z</time>
825</trkpt>
826<trkpt lat="50.8711" lon="-1.56242">
827<time>2005-05-01T15:28:59Z</time>
828</trkpt>
829<trkpt lat="50.8711" lon="-1.56244">
830<time>2005-05-01T15:29:17Z</time>
831</trkpt>
832<trkpt lat="50.8711" lon="-1.56244">
833<time>2005-05-01T15:29:19Z</time>
834</trkpt>
835<trkpt lat="50.8709" lon="-1.56238">
836<time>2005-05-01T15:29:38Z</time>
837</trkpt>
838<trkpt lat="50.8706" lon="-1.56229">
839<time>2005-05-01T15:29:58Z</time>
840</trkpt>
841<trkpt lat="50.8705" lon="-1.56229">
842<time>2005-05-01T15:30:16Z</time>
843</trkpt>
844<trkpt lat="50.8705" lon="-1.56238">
845<time>2005-05-01T15:30:56Z</time>
846</trkpt>
847<trkpt lat="50.8705" lon="-1.5624">
848<time>2005-05-01T15:30:58Z</time>
849</trkpt>
850<trkpt lat="50.8705" lon="-1.5624">
851<time>2005-05-01T15:31:12Z</time>
852</trkpt>
853<trkpt lat="50.8705" lon="-1.5624">
854<time>2005-05-01T15:44:36Z</time>
855</trkpt>
856<trkpt lat="50.8706" lon="-1.5624">
857<time>2005-05-01T15:44:51Z</time>
858</trkpt>
859<trkpt lat="50.8708" lon="-1.56238">
860<time>2005-05-01T15:45:09Z</time>
861</trkpt>
862<trkpt lat="50.8709" lon="-1.56236">
863<time>2005-05-01T15:45:12Z</time>
864</trkpt>
865<trkpt lat="50.871" lon="-1.5624">
866<time>2005-05-01T15:45:27Z</time>
867</trkpt>
868<trkpt lat="50.8711" lon="-1.56248">
869<time>2005-05-01T15:45:31Z</time>
870</trkpt>
871<trkpt lat="50.8712" lon="-1.56259">
872<time>2005-05-01T15:45:36Z</time>
873</trkpt>
874<trkpt lat="50.8712" lon="-1.56255">
875<time>2005-05-01T15:45:41Z</time>
876</trkpt>
877<trkpt lat="50.8713" lon="-1.56276">
878<time>2005-05-01T15:45:54Z</time>
879</trkpt>
880<trkpt lat="50.8713" lon="-1.56287">
881<time>2005-05-01T15:45:58Z</time>
882</trkpt>
883<trkpt lat="50.8713" lon="-1.563">
884<time>2005-05-01T15:46:02Z</time>
885</trkpt>
886<trkpt lat="50.8713" lon="-1.56317">
887<time>2005-05-01T15:46:19Z</time>
888</trkpt>
889<trkpt lat="50.8713" lon="-1.56323">
890<time>2005-05-01T15:46:52Z</time>
891</trkpt>
892<trkpt lat="50.8714" lon="-1.5633">
893<time>2005-05-01T15:46:56Z</time>
894</trkpt>
895<trkpt lat="50.8714" lon="-1.56366">
896<time>2005-05-01T15:47:13Z</time>
897</trkpt>
898<trkpt lat="50.8715" lon="-1.56407">
899<time>2005-05-01T15:47:31Z</time>
900</trkpt>
901<trkpt lat="50.8715" lon="-1.56437">
902<time>2005-05-01T15:48:05Z</time>
903</trkpt>
904<trkpt lat="50.8716" lon="-1.56478">
905<time>2005-05-01T15:48:24Z</time>
906</trkpt>
907<trkpt lat="50.8717" lon="-1.56517">
908<time>2005-05-01T15:48:42Z</time>
909</trkpt>
910<trkpt lat="50.8718" lon="-1.56551">
911<time>2005-05-01T15:48:58Z</time>
912</trkpt>
913<trkpt lat="50.8717" lon="-1.56579">
914<time>2005-05-01T15:49:11Z</time>
915</trkpt>
916<trkpt lat="50.8717" lon="-1.56637">
917<time>2005-05-01T15:49:35Z</time>
918</trkpt>
919<trkpt lat="50.8716" lon="-1.56688">
920<time>2005-05-01T15:49:56Z</time>
921</trkpt>
922<trkpt lat="50.8716" lon="-1.56729">
923<time>2005-05-01T15:50:14Z</time>
924</trkpt>
925<trkpt lat="50.8715" lon="-1.56776">
926<time>2005-05-01T15:50:36Z</time>
927</trkpt>
928<trkpt lat="50.8715" lon="-1.56817">
929<time>2005-05-01T15:50:55Z</time>
930</trkpt>
931<trkpt lat="50.8715" lon="-1.56845">
932<time>2005-05-01T15:51:10Z</time>
933</trkpt>
934<trkpt lat="50.8716" lon="-1.56877">
935<time>2005-05-01T15:51:27Z</time>
936</trkpt>
937<trkpt lat="50.8716" lon="-1.56886">
938<time>2005-05-01T15:51:46Z</time>
939</trkpt>
940<trkpt lat="50.8716" lon="-1.56884">
941<time>2005-05-01T15:52:09Z</time>
942</trkpt>
943<trkpt lat="50.8716" lon="-1.56884">
944<time>2005-05-01T15:56:38Z</time>
945</trkpt>
946<trkpt lat="50.8716" lon="-1.56884">
947<time>2005-05-01T15:56:46Z</time>
948</trkpt>
949<trkpt lat="50.8716" lon="-1.56888">
950<time>2005-05-01T15:57:09Z</time>
951</trkpt>
952<trkpt lat="50.8718" lon="-1.56901">
953<time>2005-05-01T15:57:23Z</time>
954</trkpt>
955<trkpt lat="50.8721" lon="-1.56914">
956<time>2005-05-01T15:57:43Z</time>
957</trkpt>
958<trkpt lat="50.8722" lon="-1.56922">
959<time>2005-05-01T15:57:57Z</time>
960</trkpt>
961<trkpt lat="50.8722" lon="-1.56931">
962<time>2005-05-01T15:58:10Z</time>
963</trkpt>
964<trkpt lat="50.8722" lon="-1.56935">
965<time>2005-05-01T15:58:17Z</time>
966</trkpt>
967<trkpt lat="50.8722" lon="-1.56939">
968<time>2005-05-01T15:58:20Z</time>
969</trkpt>
970<trkpt lat="50.8722" lon="-1.56948">
971<time>2005-05-01T15:58:36Z</time>
972</trkpt>
973<trkpt lat="50.8722" lon="-1.56963">
974<time>2005-05-01T15:58:54Z</time>
975</trkpt>
976<trkpt lat="50.8722" lon="-1.56995">
977<time>2005-05-01T15:59:10Z</time>
978</trkpt>
979<trkpt lat="50.8722" lon="-1.56997">
980<time>2005-05-01T15:59:33Z</time>
981</trkpt>
982<trkpt lat="50.8722" lon="-1.57002">
983<time>2005-05-01T16:00:14Z</time>
984</trkpt>
985<trkpt lat="50.8722" lon="-1.56995">
986<time>2005-05-01T16:00:31Z</time>
987</trkpt>
988<trkpt lat="50.8721" lon="-1.57004">
989<time>2005-05-01T16:00:36Z</time>
990</trkpt>
991<trkpt lat="50.8721" lon="-1.57036">
992<time>2005-05-01T16:00:52Z</time>
993</trkpt>
994<trkpt lat="50.872" lon="-1.57057">
995<time>2005-05-01T16:01:04Z</time>
996</trkpt>
997<trkpt lat="50.8721" lon="-1.57066">
998<time>2005-05-01T16:01:08Z</time>
999</trkpt>
1000<trkpt lat="50.8722" lon="-1.5709">
1001<time>2005-05-01T16:01:25Z</time>
1002</trkpt>
1003<trkpt lat="50.8722" lon="-1.57092">
1004<time>2005-05-01T16:01:26Z</time>
1005</trkpt>
1006<trkpt lat="50.8723" lon="-1.57141">
1007<time>2005-05-01T16:01:49Z</time>
1008</trkpt>
1009<trkpt lat="50.8723" lon="-1.57205">
1010<time>2005-05-01T16:02:17Z</time>
1011</trkpt>
1012<trkpt lat="50.8723" lon="-1.57244">
1013<time>2005-05-01T16:02:34Z</time>
1014</trkpt>
1015<trkpt lat="50.8723" lon="-1.57293">
1016<time>2005-05-01T16:02:56Z</time>
1017</trkpt>
1018<trkpt lat="50.8724" lon="-1.57368">
1019<time>2005-05-01T16:03:43Z</time>
1020</trkpt>
1021<trkpt lat="50.8724" lon="-1.57323">
1022<time>2005-05-01T16:04:01Z</time>
1023</trkpt>
1024<trkpt lat="50.8724" lon="-1.57326">
1025<time>2005-05-01T16:05:18Z</time>
1026</trkpt>
1027<trkpt lat="50.8724" lon="-1.57332">
1028<time>2005-05-01T16:05:19Z</time>
1029</trkpt>
1030<trkpt lat="50.8725" lon="-1.57334">
1031<time>2005-05-01T16:05:39Z</time>
1032</trkpt>
1033<trkpt lat="50.8724" lon="-1.57338">
1034<time>2005-05-01T16:06:15Z</time>
1035</trkpt>
1036<trkpt lat="50.8721" lon="-1.57388">
1037<time>2005-05-01T16:06:51Z</time>
1038</trkpt>
1039<trkpt lat="50.8721" lon="-1.57388">
1040<time>2005-05-01T16:06:53Z</time>
1041</trkpt>
1042<trkpt lat="50.8718" lon="-1.57371">
1043<time>2005-05-01T16:07:20Z</time>
1044</trkpt>
1045<trkpt lat="50.8716" lon="-1.57368">
1046<time>2005-05-01T16:07:38Z</time>
1047</trkpt>
1048<trkpt lat="50.8713" lon="-1.57356">
1049<time>2005-05-01T16:07:58Z</time>
1050</trkpt>
1051<trkpt lat="50.8711" lon="-1.57341">
1052<time>2005-05-01T16:08:15Z</time>
1053</trkpt>
1054<trkpt lat="50.8709" lon="-1.57334">
1055<time>2005-05-01T16:08:31Z</time>
1056</trkpt>
1057<trkpt lat="50.8706" lon="-1.57341">
1058<time>2005-05-01T16:08:54Z</time>
1059</trkpt>
1060<trkpt lat="50.8703" lon="-1.57338">
1061<time>2005-05-01T16:09:15Z</time>
1062</trkpt>
1063<trkpt lat="50.8699" lon="-1.57351">
1064<time>2005-05-01T16:09:40Z</time>
1065</trkpt>
1066<trkpt lat="50.8697" lon="-1.57358">
1067<time>2005-05-01T16:10:02Z</time>
1068</trkpt>
1069<trkpt lat="50.8694" lon="-1.5736">
1070<time>2005-05-01T16:10:22Z</time>
1071</trkpt>
1072<trkpt lat="50.8691" lon="-1.57362">
1073<time>2005-05-01T16:10:41Z</time>
1074</trkpt>
1075<trkpt lat="50.8686" lon="-1.57364">
1076<time>2005-05-01T16:11:15Z</time>
1077</trkpt>
1078<trkpt lat="50.8683" lon="-1.57362">
1079<time>2005-05-01T16:11:41Z</time>
1080</trkpt>
1081<trkpt lat="50.868" lon="-1.57364">
1082<time>2005-05-01T16:11:59Z</time>
1083</trkpt>
1084<trkpt lat="50.8677" lon="-1.57371">
1085<time>2005-05-01T16:12:24Z</time>
1086</trkpt>
1087<trkpt lat="50.8674" lon="-1.5739">
1088<time>2005-05-01T16:12:43Z</time>
1089</trkpt>
1090<trkpt lat="50.8673" lon="-1.57407">
1091<time>2005-05-01T16:13:03Z</time>
1092</trkpt>
1093<trkpt lat="50.8673" lon="-1.57414">
1094<time>2005-05-01T16:13:17Z</time>
1095</trkpt>
1096<trkpt lat="50.8672" lon="-1.57444">
1097<time>2005-05-01T16:13:33Z</time>
1098</trkpt>
1099<trkpt lat="50.8672" lon="-1.57444">
1100<time>2005-05-01T16:13:35Z</time>
1101</trkpt>
1102<trkpt lat="50.867" lon="-1.57431">
1103<time>2005-05-01T16:13:50Z</time>
1104</trkpt>
1105<trkpt lat="50.867" lon="-1.57424">
1106<time>2005-05-01T16:14:08Z</time>
1107</trkpt>
1108<trkpt lat="50.867" lon="-1.57424">
1109<time>2005-05-01T16:14:09Z</time>
1110</trkpt>
1111<trkpt lat="50.8668" lon="-1.57405">
1112<time>2005-05-01T16:14:25Z</time>
1113</trkpt>
1114<trkpt lat="50.8667" lon="-1.57418">
1115<time>2005-05-01T16:14:46Z</time>
1116</trkpt>
1117<trkpt lat="50.8666" lon="-1.57422">
1118<time>2005-05-01T16:15:07Z</time>
1119</trkpt>
1120<trkpt lat="50.8664" lon="-1.57426">
1121<time>2005-05-01T16:15:27Z</time>
1122</trkpt>
1123<trkpt lat="50.8664" lon="-1.57424">
1124<time>2005-05-01T16:15:31Z</time>
1125</trkpt>
1126<trkpt lat="50.8662" lon="-1.57409">
1127<time>2005-05-01T16:15:50Z</time>
1128</trkpt>
1129<trkpt lat="50.8659" lon="-1.57392">
1130<time>2005-05-01T16:16:14Z</time>
1131</trkpt>
1132<trkpt lat="50.8657" lon="-1.57375">
1133<time>2005-05-01T16:16:32Z</time>
1134</trkpt>
1135<trkpt lat="50.8653" lon="-1.57345">
1136<time>2005-05-01T16:17:06Z</time>
1137</trkpt>
1138<trkpt lat="50.8651" lon="-1.57336">
1139<time>2005-05-01T16:17:32Z</time>
1140</trkpt>
1141<trkpt lat="50.8651" lon="-1.57336">
1142<time>2005-05-01T16:17:39Z</time>
1143</trkpt>
1144<trkpt lat="50.8645" lon="-1.57338">
1145<time>2005-05-01T16:18:14Z</time>
1146</trkpt>
1147<trkpt lat="50.8645" lon="-1.57338">
1148<time>2005-05-01T16:18:16Z</time>
1149</trkpt>
1150<trkpt lat="50.8644" lon="-1.57334">
1151<time>2005-05-01T16:18:20Z</time>
1152</trkpt>
1153<trkpt lat="50.8644" lon="-1.5733">
1154<time>2005-05-01T16:18:27Z</time>
1155</trkpt>
1156<trkpt lat="50.8642" lon="-1.57296">
1157<time>2005-05-01T16:18:49Z</time>
1158</trkpt>
1159<trkpt lat="50.8641" lon="-1.57246">
1160<time>2005-05-01T16:19:13Z</time>
1161</trkpt>
1162<trkpt lat="50.8639" lon="-1.57197">
1163<time>2005-05-01T16:19:35Z</time>
1164</trkpt>
1165<trkpt lat="50.8638" lon="-1.5716">
1166<time>2005-05-01T16:19:53Z</time>
1167</trkpt>
1168<trkpt lat="50.8637" lon="-1.57117">
1169<time>2005-05-01T16:20:14Z</time>
1170</trkpt>
1171<trkpt lat="50.8636" lon="-1.57077">
1172<time>2005-05-01T16:20:35Z</time>
1173</trkpt>
1174<trkpt lat="50.8635" lon="-1.57047">
1175<time>2005-05-01T16:20:51Z</time>
1176</trkpt>
1177<trkpt lat="50.8635" lon="-1.5704">
1178<time>2005-05-01T16:20:55Z</time>
1179</trkpt>
1180<trkpt lat="50.8635" lon="-1.57032">
1181<time>2005-05-01T16:21:02Z</time>
1182</trkpt>
1183<trkpt lat="50.8634" lon="-1.57021">
1184<time>2005-05-01T16:21:23Z</time>
1185</trkpt>
1186<trkpt lat="50.8634" lon="-1.57002">
1187<time>2005-05-01T16:21:49Z</time>
1188</trkpt>
1189<trkpt lat="50.8633" lon="-1.56989">
1190<time>2005-05-01T16:22:15Z</time>
1191</trkpt>
1192<trkpt lat="50.8633" lon="-1.56989">
1193<time>2005-05-01T16:22:54Z</time>
1194</trkpt>
1195<trkpt lat="50.8632" lon="-1.56974">
1196<time>2005-05-01T16:23:19Z</time>
1197</trkpt>
1198<trkpt lat="50.8629" lon="-1.56918">
1199<time>2005-05-01T16:23:54Z</time>
1200</trkpt>
1201<trkpt lat="50.8625" lon="-1.56875">
1202<time>2005-05-01T16:24:21Z</time>
1203</trkpt>
1204<trkpt lat="50.8624" lon="-1.56862">
1205<time>2005-05-01T16:24:42Z</time>
1206</trkpt>
1207<trkpt lat="50.8622" lon="-1.56838">
1208<time>2005-05-01T16:25:10Z</time>
1209</trkpt>
1210<trkpt lat="50.862" lon="-1.56806">
1211<time>2005-05-01T16:25:54Z</time>
1212</trkpt>
1213<trkpt lat="50.8616" lon="-1.56761">
1214<time>2005-05-01T16:26:28Z</time>
1215</trkpt>
1216<trkpt lat="50.8612" lon="-1.56705">
1217<time>2005-05-01T16:27:08Z</time>
1218</trkpt>
1219<trkpt lat="50.8607" lon="-1.56643">
1220<time>2005-05-01T16:27:40Z</time>
1221</trkpt>
1222<trkpt lat="50.8606" lon="-1.56613">
1223<time>2005-05-01T16:27:57Z</time>
1224</trkpt>
1225<trkpt lat="50.8604" lon="-1.56598">
1226<time>2005-05-01T16:28:19Z</time>
1227</trkpt>
1228<trkpt lat="50.8603" lon="-1.56577">
1229<time>2005-05-01T16:28:41Z</time>
1230</trkpt>
1231<trkpt lat="50.8601" lon="-1.56551">
1232<time>2005-05-01T16:29:06Z</time>
1233</trkpt>
1234<trkpt lat="50.86" lon="-1.56529">
1235<time>2005-05-01T16:29:29Z</time>
1236</trkpt>
1237<trkpt lat="50.8598" lon="-1.56495">
1238<time>2005-05-01T16:29:56Z</time>
1239</trkpt>
1240<trkpt lat="50.8596" lon="-1.56454">
1241<time>2005-05-01T16:30:18Z</time>
1242</trkpt>
1243<trkpt lat="50.8595" lon="-1.56439">
1244<time>2005-05-01T16:30:25Z</time>
1245</trkpt>
1246<trkpt lat="50.8596" lon="-1.56452">
1247<time>2005-05-01T16:30:27Z</time>
1248</trkpt>
1249<trkpt lat="50.8595" lon="-1.56439">
1250<time>2005-05-01T16:30:32Z</time>
1251</trkpt>
1252<trkpt lat="50.8594" lon="-1.56448">
1253<time>2005-05-01T16:30:44Z</time>
1254</trkpt>
1255<trkpt lat="50.8593" lon="-1.56474">
1256<time>2005-05-01T16:31:11Z</time>
1257</trkpt>
1258<trkpt lat="50.8592" lon="-1.56476">
1259<time>2005-05-01T16:31:38Z</time>
1260</trkpt>
1261<trkpt lat="50.8592" lon="-1.56495">
1262<time>2005-05-01T16:32:18Z</time>
1263</trkpt>
1264<trkpt lat="50.8591" lon="-1.56523">
1265<time>2005-05-01T16:32:42Z</time>
1266</trkpt>
1267<trkpt lat="50.8591" lon="-1.56523">
1268<time>2005-05-01T16:33:04Z</time>
1269</trkpt>
1270<trkpt lat="50.8592" lon="-1.56487">
1271<time>2005-05-01T16:33:29Z</time>
1272</trkpt>
1273<trkpt lat="50.8592" lon="-1.56476">
1274<time>2005-05-01T16:33:47Z</time>
1275</trkpt>
1276<trkpt lat="50.8593" lon="-1.56457">
1277<time>2005-05-01T16:41:01Z</time>
1278</trkpt>
1279<trkpt lat="50.8593" lon="-1.56452">
1280<time>2005-05-01T16:41:05Z</time>
1281</trkpt>
1282<trkpt lat="50.8594" lon="-1.56439">
1283<time>2005-05-01T16:41:30Z</time>
1284</trkpt>
1285<trkpt lat="50.8591" lon="-1.56396">
1286<time>2005-05-01T16:42:07Z</time>
1287</trkpt>
1288<trkpt lat="50.8587" lon="-1.56289">
1289<time>2005-05-01T16:42:53Z</time>
1290</trkpt>
1291<trkpt lat="50.8586" lon="-1.56285">
1292<time>2005-05-01T16:43:03Z</time>
1293</trkpt>
1294<trkpt lat="50.8583" lon="-1.56246">
1295<time>2005-05-01T16:43:28Z</time>
1296</trkpt>
1297<trkpt lat="50.858" lon="-1.5619">
1298<time>2005-05-01T16:44:02Z</time>
1299</trkpt>
1300<trkpt lat="50.8577" lon="-1.56139">
1301<time>2005-05-01T16:44:29Z</time>
1302</trkpt>
1303<trkpt lat="50.8576" lon="-1.56105">
1304<time>2005-05-01T16:44:55Z</time>
1305</trkpt>
1306<trkpt lat="50.8575" lon="-1.56072">
1307<time>2005-05-01T16:45:12Z</time>
1308</trkpt>
1309<trkpt lat="50.8574" lon="-1.56045">
1310<time>2005-05-01T16:45:41Z</time>
1311</trkpt>
1312<trkpt lat="50.8571" lon="-1.55942">
1313<time>2005-05-01T16:46:52Z</time>
1314</trkpt>
1315<trkpt lat="50.8569" lon="-1.55918">
1316<time>2005-05-01T16:47:20Z</time>
1317</trkpt>
1318<trkpt lat="50.8568" lon="-1.55905">
1319<time>2005-05-01T16:47:49Z</time>
1320</trkpt>
1321<trkpt lat="50.8568" lon="-1.55875">
1322<time>2005-05-01T16:48:18Z</time>
1323</trkpt>
1324<trkpt lat="50.8565" lon="-1.55845">
1325<time>2005-05-01T16:48:48Z</time>
1326</trkpt>
1327<trkpt lat="50.8564" lon="-1.5583">
1328<time>2005-05-01T16:49:15Z</time>
1329</trkpt>
1330<trkpt lat="50.8563" lon="-1.55808">
1331<time>2005-05-01T16:49:48Z</time>
1332</trkpt>
1333<trkpt lat="50.8562" lon="-1.55785">
1334<time>2005-05-01T16:50:09Z</time>
1335</trkpt>
1336<trkpt lat="50.856" lon="-1.55746">
1337<time>2005-05-01T16:50:38Z</time>
1338</trkpt>
1339<trkpt lat="50.856" lon="-1.55744">
1340<time>2005-05-01T16:50:39Z</time>
1341</trkpt>
1342<trkpt lat="50.8559" lon="-1.55736">
1343<time>2005-05-01T16:50:45Z</time>
1344</trkpt>
1345<trkpt lat="50.8557" lon="-1.55669">
1346<time>2005-05-01T16:51:19Z</time>
1347</trkpt>
1348<trkpt lat="50.8554" lon="-1.55611">
1349<time>2005-05-01T16:51:55Z</time>
1350</trkpt>
1351<trkpt lat="50.855" lon="-1.55551">
1352<time>2005-05-01T16:52:34Z</time>
1353</trkpt>
1354<trkpt lat="50.8548" lon="-1.55504">
1355<time>2005-05-01T16:53:01Z</time>
1356</trkpt>
1357<trkpt lat="50.8548" lon="-1.55493">
1358<time>2005-05-01T16:53:24Z</time>
1359</trkpt>
1360<trkpt lat="50.8551" lon="-1.55478">
1361<time>2005-05-01T16:53:48Z</time>
1362</trkpt>
1363<trkpt lat="50.8553" lon="-1.55461">
1364<time>2005-05-01T16:54:11Z</time>
1365</trkpt>
1366<trkpt lat="50.8554" lon="-1.55457">
1367<time>2005-05-01T16:54:22Z</time>
1368</trkpt>
1369<trkpt lat="50.8554" lon="-1.55463">
1370<time>2005-05-01T16:54:27Z</time>
1371</trkpt>
1372<trkpt lat="50.8551" lon="-1.55482">
1373<time>2005-05-01T16:54:48Z</time>
1374</trkpt>
1375<trkpt lat="50.8547" lon="-1.55497">
1376<time>2005-05-01T16:55:13Z</time>
1377</trkpt>
1378<trkpt lat="50.8545" lon="-1.55463">
1379<time>2005-05-01T16:55:41Z</time>
1380</trkpt>
1381<trkpt lat="50.8541" lon="-1.55386">
1382<time>2005-05-01T16:56:24Z</time>
1383</trkpt>
1384<trkpt lat="50.8538" lon="-1.55294">
1385<time>2005-05-01T16:57:15Z</time>
1386</trkpt>
1387<trkpt lat="50.8536" lon="-1.55244">
1388<time>2005-05-01T16:57:42Z</time>
1389</trkpt>
1390<trkpt lat="50.8535" lon="-1.55191">
1391<time>2005-05-01T16:58:06Z</time>
1392</trkpt>
1393<trkpt lat="50.8535" lon="-1.55178">
1394<time>2005-05-01T16:58:14Z</time>
1395</trkpt>
1396<trkpt lat="50.8536" lon="-1.55139">
1397<time>2005-05-01T16:58:47Z</time>
1398</trkpt>
1399<trkpt lat="50.8537" lon="-1.55143">
1400<time>2005-05-01T17:07:48Z</time>
1401</trkpt>
1402<trkpt lat="50.854" lon="-1.55154">
1403<time>2005-05-01T17:08:17Z</time>
1404</trkpt>
1405<trkpt lat="50.8541" lon="-1.55152">
1406<time>2005-05-01T17:08:36Z</time>
1407</trkpt>
1408<trkpt lat="50.8544" lon="-1.55137">
1409<time>2005-05-01T17:08:55Z</time>
1410</trkpt>
1411<trkpt lat="50.8546" lon="-1.55098">
1412<time>2005-05-01T17:09:21Z</time>
1413</trkpt>
1414<trkpt lat="50.8548" lon="-1.5507">
1415<time>2005-05-01T17:09:39Z</time>
1416</trkpt>
1417<trkpt lat="50.855" lon="-1.55034">
1418<time>2005-05-01T17:09:59Z</time>
1419</trkpt>
1420<trkpt lat="50.8552" lon="-1.54989">
1421<time>2005-05-01T17:10:21Z</time>
1422</trkpt>
1423<trkpt lat="50.8553" lon="-1.54946">
1424<time>2005-05-01T17:10:42Z</time>
1425</trkpt>
1426<trkpt lat="50.8554" lon="-1.54903">
1427<time>2005-05-01T17:11:04Z</time>
1428</trkpt>
1429<trkpt lat="50.8555" lon="-1.54867">
1430<time>2005-05-01T17:11:23Z</time>
1431</trkpt>
1432<trkpt lat="50.8556" lon="-1.54826">
1433<time>2005-05-01T17:11:43Z</time>
1434</trkpt>
1435<trkpt lat="50.8557" lon="-1.54785">
1436<time>2005-05-01T17:12:04Z</time>
1437</trkpt>
1438<trkpt lat="50.8557" lon="-1.54757">
1439<time>2005-05-01T17:12:23Z</time>
1440</trkpt>
1441<trkpt lat="50.8557" lon="-1.54733">
1442<time>2005-05-01T17:12:37Z</time>
1443</trkpt>
1444<trkpt lat="50.8556" lon="-1.54708">
1445<time>2005-05-01T17:12:55Z</time>
1446</trkpt>
1447<trkpt lat="50.8557" lon="-1.54688">
1448<time>2005-05-01T17:13:12Z</time>
1449</trkpt>
1450<trkpt lat="50.8557" lon="-1.54684">
1451<time>2005-05-01T17:13:14Z</time>
1452</trkpt>
1453<trkpt lat="50.8557" lon="-1.54676">
1454<time>2005-05-01T17:13:21Z</time>
1455</trkpt>
1456<trkpt lat="50.856" lon="-1.5465">
1457<time>2005-05-01T17:13:46Z</time>
1458</trkpt>
1459<trkpt lat="50.8563" lon="-1.54633">
1460<time>2005-05-01T17:14:05Z</time>
1461</trkpt>
1462<trkpt lat="50.8565" lon="-1.54615">
1463<time>2005-05-01T17:14:25Z</time>
1464</trkpt>
1465<trkpt lat="50.8568" lon="-1.54594">
1466<time>2005-05-01T17:14:45Z</time>
1467</trkpt>
1468<trkpt lat="50.857" lon="-1.5457">
1469<time>2005-05-01T17:15:05Z</time>
1470</trkpt>
1471<trkpt lat="50.8573" lon="-1.54547">
1472<time>2005-05-01T17:15:27Z</time>
1473</trkpt>
1474<trkpt lat="50.8576" lon="-1.54525">
1475<time>2005-05-01T17:15:49Z</time>
1476</trkpt>
1477<trkpt lat="50.8578" lon="-1.54508">
1478<time>2005-05-01T17:16:06Z</time>
1479</trkpt>
1480<trkpt lat="50.8581" lon="-1.54489">
1481<time>2005-05-01T17:16:26Z</time>
1482</trkpt>
1483<trkpt lat="50.8583" lon="-1.5447">
1484<time>2005-05-01T17:16:48Z</time>
1485</trkpt>
1486<trkpt lat="50.8583" lon="-1.54463">
1487<time>2005-05-01T17:17:31Z</time>
1488</trkpt>
1489<trkpt lat="50.8583" lon="-1.54461">
1490<time>2005-05-01T17:18:32Z</time>
1491</trkpt>
1492<trkpt lat="50.8583" lon="-1.54461">
1493<time>2005-05-01T17:18:50Z</time>
1494</trkpt>
1495<trkpt lat="50.8584" lon="-1.54433">
1496<time>2005-05-01T17:19:06Z</time>
1497</trkpt>
1498<trkpt lat="50.8587" lon="-1.54382">
1499<time>2005-05-01T17:19:44Z</time>
1500</trkpt>
1501<trkpt lat="50.8589" lon="-1.5436">
1502<time>2005-05-01T17:20:06Z</time>
1503</trkpt>
1504<trkpt lat="50.8589" lon="-1.54358">
1505<time>2005-05-01T17:20:10Z</time>
1506</trkpt>
1507<trkpt lat="50.8591" lon="-1.54324">
1508<time>2005-05-01T17:20:36Z</time>
1509</trkpt>
1510<trkpt lat="50.8592" lon="-1.54302">
1511<time>2005-05-01T17:21:07Z</time>
1512</trkpt>
1513<trkpt lat="50.8596" lon="-1.54229">
1514<time>2005-05-01T17:21:54Z</time>
1515</trkpt>
1516<trkpt lat="50.8599" lon="-1.54154">
1517<time>2005-05-01T17:22:35Z</time>
1518</trkpt>
1519<trkpt lat="50.8602" lon="-1.5409">
1520<time>2005-05-01T17:23:09Z</time>
1521</trkpt>
1522<trkpt lat="50.8603" lon="-1.54077">
1523<time>2005-05-01T17:23:33Z</time>
1524</trkpt>
1525<trkpt lat="50.8603" lon="-1.54064">
1526<time>2005-05-01T17:24:10Z</time>
1527</trkpt>
1528<trkpt lat="50.8603" lon="-1.54081">
1529<time>2005-05-01T17:24:35Z</time>
1530</trkpt>
1531<trkpt lat="50.8604" lon="-1.54077">
1532<time>2005-05-01T17:25:03Z</time>
1533</trkpt>
1534<trkpt lat="50.8608" lon="-1.54088">
1535<time>2005-05-01T17:25:29Z</time>
1536</trkpt>
1537<trkpt lat="50.8608" lon="-1.54081">
1538<time>2005-05-01T17:26:05Z</time>
1539</trkpt>
1540<trkpt lat="50.861" lon="-1.54088">
1541<time>2005-05-01T17:27:23Z</time>
1542</trkpt>
1543<trkpt lat="50.8614" lon="-1.54107">
1544<time>2005-05-01T17:27:50Z</time>
1545</trkpt>
1546<trkpt lat="50.8617" lon="-1.54124">
1547<time>2005-05-01T17:28:14Z</time>
1548</trkpt>
1549<trkpt lat="50.8618" lon="-1.54135">
1550<time>2005-05-01T17:28:29Z</time>
1551</trkpt>
1552<trkpt lat="50.862" lon="-1.54173">
1553<time>2005-05-01T17:28:52Z</time>
1554</trkpt>
1555<trkpt lat="50.8623" lon="-1.54214">
1556<time>2005-05-01T17:29:21Z</time>
1557</trkpt>
1558<trkpt lat="50.8626" lon="-1.54255">
1559<time>2005-05-01T17:29:51Z</time>
1560</trkpt>
1561<trkpt lat="50.8629" lon="-1.54283">
1562<time>2005-05-01T17:30:18Z</time>
1563</trkpt>
1564<trkpt lat="50.8629" lon="-1.54285">
1565<time>2005-05-01T17:30:23Z</time>
1566</trkpt>
1567<trkpt lat="50.8631" lon="-1.54296">
1568<time>2005-05-01T17:30:48Z</time>
1569</trkpt>
1570<trkpt lat="50.8631" lon="-1.54294">
1571<time>2005-05-01T17:40:03Z</time>
1572</trkpt>
1573<trkpt lat="50.8631" lon="-1.54287">
1574<time>2005-05-01T17:40:31Z</time>
1575</trkpt>
1576<trkpt lat="50.8633" lon="-1.54255">
1577<time>2005-05-01T17:40:53Z</time>
1578</trkpt>
1579<trkpt lat="50.8637" lon="-1.54218">
1580<time>2005-05-01T17:41:20Z</time>
1581</trkpt>
1582<trkpt lat="50.864" lon="-1.54182">
1583<time>2005-05-01T17:41:45Z</time>
1584</trkpt>
1585<trkpt lat="50.8642" lon="-1.54158">
1586<time>2005-05-01T17:42:02Z</time>
1587</trkpt>
1588<trkpt lat="50.8644" lon="-1.54133">
1589<time>2005-05-01T17:42:21Z</time>
1590</trkpt>
1591<trkpt lat="50.8645" lon="-1.54113">
1592<time>2005-05-01T17:42:36Z</time>
1593</trkpt>
1594<trkpt lat="50.8648" lon="-1.54077">
1595<time>2005-05-01T17:43:01Z</time>
1596</trkpt>
1597<trkpt lat="50.8648" lon="-1.54073">
1598<time>2005-05-01T17:43:10Z</time>
1599</trkpt>
1600<trkpt lat="50.8648" lon="-1.54077">
1601<time>2005-05-01T17:43:20Z</time>
1602</trkpt>
1603<trkpt lat="50.8651" lon="-1.54051">
1604<time>2005-05-01T17:43:39Z</time>
1605</trkpt>
1606<trkpt lat="50.8652" lon="-1.54038">
1607<time>2005-05-01T17:43:55Z</time>
1608</trkpt>
1609<trkpt lat="50.8653" lon="-1.54017">
1610<time>2005-05-01T17:44:09Z</time>
1611</trkpt>
1612<trkpt lat="50.8653" lon="-1.54015">
1613<time>2005-05-01T17:44:11Z</time>
1614</trkpt>
1615<trkpt lat="50.8654" lon="-1.53997">
1616<time>2005-05-01T17:44:25Z</time>
1617</trkpt>
1618<trkpt lat="50.8654" lon="-1.53997">
1619<time>2005-05-01T17:44:28Z</time>
1620</trkpt>
1621<trkpt lat="50.8655" lon="-1.53995">
1622<time>2005-05-01T17:44:42Z</time>
1623</trkpt>
1624<trkpt lat="50.8657" lon="-1.53991">
1625<time>2005-05-01T17:44:58Z</time>
1626</trkpt>
1627<trkpt lat="50.8657" lon="-1.53997">
1628<time>2005-05-01T17:45:13Z</time>
1629</trkpt>
1630<trkpt lat="50.8657" lon="-1.53993">
1631<time>2005-05-01T17:45:51Z</time>
1632</trkpt>
1633<trkpt lat="50.8657" lon="-1.53993">
1634<time>2005-05-01T17:46:10Z</time>
1635</trkpt>
1636<trkpt lat="50.8657" lon="-1.53961">
1637<time>2005-05-01T17:46:26Z</time>
1638</trkpt>
1639<trkpt lat="50.8658" lon="-1.53912">
1640<time>2005-05-01T17:46:48Z</time>
1641</trkpt>
1642<trkpt lat="50.8658" lon="-1.53862">
1643<time>2005-05-01T17:47:10Z</time>
1644</trkpt>
1645<trkpt lat="50.8658" lon="-1.53843">
1646<time>2005-05-01T17:47:30Z</time>
1647</trkpt>
1648<trkpt lat="50.8659" lon="-1.53806">
1649<time>2005-05-01T17:47:46Z</time>
1650</trkpt>
1651<trkpt lat="50.8659" lon="-1.53772">
1652<time>2005-05-01T17:48:04Z</time>
1653</trkpt>
1654<trkpt lat="50.8659" lon="-1.53757">
1655<time>2005-05-01T17:48:37Z</time>
1656</trkpt>
1657<trkpt lat="50.8659" lon="-1.53753">
1658<time>2005-05-01T17:48:56Z</time>
1659</trkpt>
1660<trkpt lat="50.8659" lon="-1.53734">
1661<time>2005-05-01T17:49:12Z</time>
1662</trkpt>
1663<trkpt lat="50.8659" lon="-1.5371">
1664<time>2005-05-01T17:49:29Z</time>
1665</trkpt>
1666<trkpt lat="50.8659" lon="-1.53691">
1667<time>2005-05-01T17:49:44Z</time>
1668</trkpt>
1669<trkpt lat="50.866" lon="-1.53643">
1670<time>2005-05-01T17:50:07Z</time>
1671</trkpt>
1672<trkpt lat="50.866" lon="-1.53639">
1673<time>2005-05-01T17:50:23Z</time>
1674</trkpt>
1675<trkpt lat="50.866" lon="-1.53613">
1676<time>2005-05-01T17:50:39Z</time>
1677</trkpt>
1678<trkpt lat="50.8661" lon="-1.53583">
1679<time>2005-05-01T17:50:56Z</time>
1680</trkpt>
1681<trkpt lat="50.8662" lon="-1.53581">
1682<time>2005-05-01T17:50:59Z</time>
1683</trkpt>
1684<trkpt lat="50.8663" lon="-1.53545">
1685<time>2005-05-01T17:51:17Z</time>
1686</trkpt>
1687<trkpt lat="50.8664" lon="-1.53521">
1688<time>2005-05-01T17:51:28Z</time>
1689</trkpt>
1690<trkpt lat="50.8663" lon="-1.53521">
1691<time>2005-05-01T17:51:33Z</time>
1692</trkpt>
1693<trkpt lat="50.8661" lon="-1.53536">
1694<time>2005-05-01T17:51:51Z</time>
1695</trkpt>
1696<trkpt lat="50.8659" lon="-1.53558">
1697<time>2005-05-01T17:52:09Z</time>
1698</trkpt>
1699<trkpt lat="50.8657" lon="-1.53568">
1700<time>2005-05-01T17:52:21Z</time>
1701</trkpt>
1702<trkpt lat="50.8657" lon="-1.5356">
1703<time>2005-05-01T17:52:27Z</time>
1704</trkpt>
1705<trkpt lat="50.8657" lon="-1.5351">
1706<time>2005-05-01T17:52:49Z</time>
1707</trkpt>
1708<trkpt lat="50.8659" lon="-1.53461">
1709<time>2005-05-01T17:53:13Z</time>
1710</trkpt>
1711<trkpt lat="50.8659" lon="-1.53429">
1712<time>2005-05-01T17:53:30Z</time>
1713</trkpt>
1714<trkpt lat="50.8661" lon="-1.53379">
1715<time>2005-05-01T17:53:52Z</time>
1716</trkpt>
1717<trkpt lat="50.8662" lon="-1.53339">
1718<time>2005-05-01T17:54:11Z</time>
1719</trkpt>
1720<trkpt lat="50.8663" lon="-1.53294">
1721<time>2005-05-01T17:54:32Z</time>
1722</trkpt>
1723<trkpt lat="50.8663" lon="-1.53261">
1724<time>2005-05-01T17:54:52Z</time>
1725</trkpt>
1726<trkpt lat="50.8664" lon="-1.53236">
1727<time>2005-05-01T17:55:17Z</time>
1728</trkpt>
1729<trkpt lat="50.8665" lon="-1.5321">
1730<time>2005-05-01T17:55:42Z</time>
1731</trkpt>
1732<trkpt lat="50.8666" lon="-1.53158">
1733<time>2005-05-01T17:56:05Z</time>
1734</trkpt>
1735<trkpt lat="50.8668" lon="-1.53107">
1736<time>2005-05-01T17:56:28Z</time>
1737</trkpt>
1738<trkpt lat="50.8668" lon="-1.5306">
1739<time>2005-05-01T17:56:49Z</time>
1740</trkpt>
1741<trkpt lat="50.8669" lon="-1.53019">
1742<time>2005-05-01T17:57:07Z</time>
1743</trkpt>
1744<trkpt lat="50.8669" lon="-1.53004">
1745<time>2005-05-01T17:57:27Z</time>
1746</trkpt>
1747<trkpt lat="50.867" lon="-1.52955">
1748<time>2005-05-01T17:57:58Z</time>
1749</trkpt>
1750<trkpt lat="50.867" lon="-1.52882">
1751<time>2005-05-01T17:58:29Z</time>
1752</trkpt>
1753<trkpt lat="50.8671" lon="-1.52792">
1754<time>2005-05-01T17:59:09Z</time>
1755</trkpt>
1756<trkpt lat="50.8673" lon="-1.52716">
1757<time>2005-05-01T17:59:37Z</time>
1758</trkpt>
1759<trkpt lat="50.8673" lon="-1.52659">
1760<time>2005-05-01T18:00:01Z</time>
1761</trkpt>
1762<trkpt lat="50.8673" lon="-1.52586">
1763<time>2005-05-01T18:00:38Z</time>
1764</trkpt>
1765<trkpt lat="50.8673" lon="-1.52579">
1766<time>2005-05-01T18:00:43Z</time>
1767</trkpt>
1768<trkpt lat="50.8677" lon="-1.52517">
1769<time>2005-05-01T18:01:22Z</time>
1770</trkpt>
1771<trkpt lat="50.868" lon="-1.52457">
1772<time>2005-05-01T18:01:59Z</time>
1773</trkpt>
1774<trkpt lat="50.8681" lon="-1.52435">
1775<time>2005-05-01T18:02:12Z</time>
1776</trkpt>
1777<trkpt lat="50.8685" lon="-1.52375">
1778<time>2005-05-01T18:02:53Z</time>
1779</trkpt>
1780<trkpt lat="50.8687" lon="-1.52341">
1781<time>2005-05-01T18:03:21Z</time>
1782</trkpt>
1783<trkpt lat="50.869" lon="-1.52292">
1784<time>2005-05-01T18:03:47Z</time>
1785</trkpt>
1786<trkpt lat="50.8692" lon="-1.52247">
1787<time>2005-05-01T18:04:10Z</time>
1788</trkpt>
1789<trkpt lat="50.8694" lon="-1.52214">
1790<time>2005-05-01T18:04:30Z</time>
1791</trkpt>
1792<trkpt lat="50.8695" lon="-1.52186">
1793<time>2005-05-01T18:04:48Z</time>
1794</trkpt>
1795<trkpt lat="50.8697" lon="-1.52163">
1796<time>2005-05-01T18:05:03Z</time>
1797</trkpt>
1798<trkpt lat="50.8698" lon="-1.52116">
1799<time>2005-05-01T18:05:26Z</time>
1800</trkpt>
1801<trkpt lat="50.8698" lon="-1.52073">
1802<time>2005-05-01T18:05:48Z</time>
1803</trkpt>
1804<trkpt lat="50.8699" lon="-1.52043">
1805<time>2005-05-01T18:06:05Z</time>
1806</trkpt>
1807<trkpt lat="50.8699" lon="-1.52026">
1808<time>2005-05-01T18:06:23Z</time>
1809</trkpt>
1810<trkpt lat="50.8699" lon="-1.52023">
1811<time>2005-05-01T18:06:41Z</time>
1812</trkpt>
1813<trkpt lat="50.8699" lon="-1.52021">
1814<time>2005-05-01T18:07:16Z</time>
1815</trkpt>
1816<trkpt lat="50.8699" lon="-1.52021">
1817<time>2005-05-01T18:07:31Z</time>
1818</trkpt>
1819<trkpt lat="50.8699" lon="-1.52017">
1820<time>2005-05-01T18:08:02Z</time>
1821</trkpt>
1822<trkpt lat="50.8699" lon="-1.52015">
1823<time>2005-05-01T18:08:34Z</time>
1824</trkpt>
1825<trkpt lat="50.8699" lon="-1.52015">
1826<time>2005-05-01T18:08:39Z</time>
1827</trkpt>
1828<trkpt lat="50.87" lon="-1.51991">
1829<time>2005-05-01T18:08:54Z</time>
1830</trkpt>
1831<trkpt lat="50.87" lon="-1.51959">
1832<time>2005-05-01T18:09:12Z</time>
1833</trkpt>
1834<trkpt lat="50.8702" lon="-1.51923">
1835<time>2005-05-01T18:09:32Z</time>
1836</trkpt>
1837<trkpt lat="50.8703" lon="-1.51886">
1838<time>2005-05-01T18:09:51Z</time>
1839</trkpt>
1840<trkpt lat="50.8704" lon="-1.51845">
1841<time>2005-05-01T18:10:12Z</time>
1842</trkpt>
1843<trkpt lat="50.8705" lon="-1.51802">
1844<time>2005-05-01T18:10:34Z</time>
1845</trkpt>
1846<trkpt lat="50.8707" lon="-1.51759">
1847<time>2005-05-01T18:10:56Z</time>
1848</trkpt>
1849<trkpt lat="50.8708" lon="-1.51723">
1850<time>2005-05-01T18:11:17Z</time>
1851</trkpt>
1852<trkpt lat="50.8709" lon="-1.51695">
1853<time>2005-05-01T18:11:32Z</time>
1854</trkpt>
1855<trkpt lat="50.8711" lon="-1.51652">
1856<time>2005-05-01T18:11:56Z</time>
1857</trkpt>
1858<trkpt lat="50.8713" lon="-1.51626">
1859<time>2005-05-01T18:12:16Z</time>
1860</trkpt>
1861<trkpt lat="50.8713" lon="-1.51614">
1862<time>2005-05-01T18:12:31Z</time>
1863</trkpt>
1864<trkpt lat="50.8714" lon="-1.51594">
1865<time>2005-05-01T18:12:52Z</time>
1866</trkpt>
1867<trkpt lat="50.8716" lon="-1.51549">
1868<time>2005-05-01T18:13:15Z</time>
1869</trkpt>
1870<trkpt lat="50.8716" lon="-1.51545">
1871<time>2005-05-01T18:13:32Z</time>
1872</trkpt>
1873<trkpt lat="50.8717" lon="-1.51517">
1874<time>2005-05-01T18:13:46Z</time>
1875</trkpt>
1876<trkpt lat="50.8718" lon="-1.51472">
1877<time>2005-05-01T18:14:09Z</time>
1878</trkpt>
1879<trkpt lat="50.8719" lon="-1.51457">
1880<time>2005-05-01T18:14:17Z</time>
1881</trkpt>
1882<trkpt lat="50.8721" lon="-1.51446">
1883<time>2005-05-01T18:14:33Z</time>
1884</trkpt>
1885<trkpt lat="50.8723" lon="-1.51423">
1886<time>2005-05-01T18:14:54Z</time>
1887</trkpt>
1888<trkpt lat="50.8725" lon="-1.51384">
1889<time>2005-05-01T18:15:15Z</time>
1890</trkpt>
1891<trkpt lat="50.8727" lon="-1.51354">
1892<time>2005-05-01T18:15:32Z</time>
1893</trkpt>
1894<trkpt lat="50.8728" lon="-1.51322">
1895<time>2005-05-01T18:15:49Z</time>
1896</trkpt>
1897<trkpt lat="50.8728" lon="-1.51305">
1898<time>2005-05-01T18:16:06Z</time>
1899</trkpt>
1900<trkpt lat="50.873" lon="-1.51268">
1901<time>2005-05-01T18:16:27Z</time>
1902</trkpt>
1903<trkpt lat="50.8732" lon="-1.51232">
1904<time>2005-05-01T18:16:50Z</time>
1905</trkpt>
1906<trkpt lat="50.8732" lon="-1.51225">
1907<time>2005-05-01T18:16:54Z</time>
1908</trkpt>
1909<trkpt lat="50.8732" lon="-1.51219">
1910<time>2005-05-01T18:17:08Z</time>
1911</trkpt>
1912<trkpt lat="50.8732" lon="-1.51217">
1913<time>2005-05-01T18:17:34Z</time>
1914</trkpt>
1915<trkpt lat="50.8734" lon="-1.51182">
1916<time>2005-05-01T18:17:54Z</time>
1917</trkpt>
1918<trkpt lat="50.8736" lon="-1.51154">
1919<time>2005-05-01T18:18:14Z</time>
1920</trkpt>
1921<trkpt lat="50.8739" lon="-1.51135">
1922<time>2005-05-01T18:18:33Z</time>
1923</trkpt>
1924<trkpt lat="50.8741" lon="-1.51118">
1925<time>2005-05-01T18:18:51Z</time>
1926</trkpt>
1927<trkpt lat="50.8743" lon="-1.51103">
1928<time>2005-05-01T18:19:09Z</time>
1929</trkpt>
1930<trkpt lat="50.8744" lon="-1.51094">
1931<time>2005-05-01T18:19:17Z</time>
1932</trkpt>
1933<trkpt lat="50.8745" lon="-1.51126">
1934<time>2005-05-01T18:19:34Z</time>
1935</trkpt>
1936<trkpt lat="50.8745" lon="-1.51133">
1937<time>2005-05-01T18:19:47Z</time>
1938</trkpt>
1939<trkpt lat="50.8746" lon="-1.51152">
1940<time>2005-05-01T18:20:04Z</time>
1941</trkpt>
1942<trkpt lat="50.8746" lon="-1.51208">
1943<time>2005-05-01T18:20:32Z</time>
1944</trkpt>
1945<trkpt lat="50.8746" lon="-1.51221">
1946<time>2005-05-01T18:20:39Z</time>
1947</trkpt>
1948<trkpt lat="50.8749" lon="-1.51262">
1949<time>2005-05-01T18:21:04Z</time>
1950</trkpt>
1951<trkpt lat="50.8753" lon="-1.51298">
1952<time>2005-05-01T18:21:29Z</time>
1953</trkpt>
1954<trkpt lat="50.8756" lon="-1.51337">
1955<time>2005-05-01T18:21:52Z</time>
1956</trkpt>
1957<trkpt lat="50.876" lon="-1.51375">
1958<time>2005-05-01T18:22:19Z</time>
1959</trkpt>
1960<trkpt lat="50.8763" lon="-1.51405">
1961<time>2005-05-01T18:22:40Z</time>
1962</trkpt>
1963<trkpt lat="50.8766" lon="-1.51442">
1964<time>2005-05-01T18:23:05Z</time>
1965</trkpt>
1966<trkpt lat="50.8769" lon="-1.5147">
1967<time>2005-05-01T18:23:28Z</time>
1968</trkpt>
1969<trkpt lat="50.8771" lon="-1.51504">
1970<time>2005-05-01T18:23:50Z</time>
1971</trkpt>
1972<trkpt lat="50.8774" lon="-1.51532">
1973<time>2005-05-01T18:24:08Z</time>
1974</trkpt>
1975<trkpt lat="50.8777" lon="-1.51571">
1976<time>2005-05-01T18:24:33Z</time>
1977</trkpt>
1978<trkpt lat="50.878" lon="-1.51603">
1979<time>2005-05-01T18:24:57Z</time>
1980</trkpt>
1981<trkpt lat="50.8781" lon="-1.5162">
1982<time>2005-05-01T18:25:15Z</time>
1983</trkpt>
1984<trkpt lat="50.8785" lon="-1.51674">
1985<time>2005-05-01T18:25:42Z</time>
1986</trkpt>
1987<trkpt lat="50.8787" lon="-1.51729">
1988<time>2005-05-01T18:26:10Z</time>
1989</trkpt>
1990<trkpt lat="50.8791" lon="-1.51774">
1991<time>2005-05-01T18:26:39Z</time>
1992</trkpt>
1993<trkpt lat="50.8794" lon="-1.51807">
1994<time>2005-05-01T18:27:07Z</time>
1995</trkpt>
1996<trkpt lat="50.8797" lon="-1.51837">
1997<time>2005-05-01T18:27:32Z</time>
1998</trkpt>
1999<trkpt lat="50.8804" lon="-1.5188">
2000<time>2005-05-01T18:28:16Z</time>
2001</trkpt>
2002<trkpt lat="50.881" lon="-1.5192">
2003<time>2005-05-01T18:28:56Z</time>
2004</trkpt>
2005<trkpt lat="50.8816" lon="-1.5195">
2006<time>2005-05-01T18:29:28Z</time>
2007</trkpt>
2008<trkpt lat="50.8819" lon="-1.51968">
2009<time>2005-05-01T18:29:52Z</time>
2010</trkpt>
2011<trkpt lat="50.8823" lon="-1.51995">
2012<time>2005-05-01T18:30:20Z</time>
2013</trkpt>
2014<trkpt lat="50.8828" lon="-1.52019">
2015<time>2005-05-01T18:30:49Z</time>
2016</trkpt>
2017<trkpt lat="50.8832" lon="-1.52043">
2018<time>2005-05-01T18:31:20Z</time>
2019</trkpt>
2020<trkpt lat="50.8833" lon="-1.5209">
2021<time>2005-05-01T18:31:39Z</time>
2022</trkpt>
2023<trkpt lat="50.8836" lon="-1.52165">
2024<time>2005-05-01T18:32:09Z</time>
2025</trkpt>
2026<trkpt lat="50.8838" lon="-1.52212">
2027<time>2005-05-01T18:32:29Z</time>
2028</trkpt>
2029<trkpt lat="50.884" lon="-1.52266">
2030<time>2005-05-01T18:32:51Z</time>
2031</trkpt>
2032<trkpt lat="50.8842" lon="-1.52322">
2033<time>2005-05-01T18:33:15Z</time>
2034</trkpt>
2035<trkpt lat="50.8842" lon="-1.52362">
2036<time>2005-05-01T18:33:37Z</time>
2037</trkpt>
2038<trkpt lat="50.8842" lon="-1.52365">
2039<time>2005-05-01T18:33:43Z</time>
2040</trkpt>
2041<trkpt lat="50.8843" lon="-1.52397">
2042<time>2005-05-01T18:34:10Z</time>
2043</trkpt>
2044<trkpt lat="50.8843" lon="-1.52399">
2045<time>2005-05-01T18:34:11Z</time>
2046</trkpt>
2047<trkpt lat="50.8844" lon="-1.52446">
2048<time>2005-05-01T18:34:26Z</time>
2049</trkpt>
2050<trkpt lat="50.8845" lon="-1.52476">
2051<time>2005-05-01T18:34:33Z</time>
2052</trkpt>
2053<trkpt lat="50.8847" lon="-1.52508">
2054<time>2005-05-01T18:34:42Z</time>
2055</trkpt>
2056<trkpt lat="50.8851" lon="-1.52553">
2057<time>2005-05-01T18:34:58Z</time>
2058</trkpt>
2059<trkpt lat="50.8852" lon="-1.5256">
2060<time>2005-05-01T18:35:01Z</time>
2061</trkpt>
2062<trkpt lat="50.8853" lon="-1.52571">
2063<time>2005-05-01T18:35:06Z</time>
2064</trkpt>
2065<trkpt lat="50.8856" lon="-1.52588">
2066<time>2005-05-01T18:35:19Z</time>
2067</trkpt>
2068<trkpt lat="50.8859" lon="-1.52603">
2069<time>2005-05-01T18:35:31Z</time>
2070</trkpt>
2071<trkpt lat="50.8862" lon="-1.52624">
2072<time>2005-05-01T18:35:46Z</time>
2073</trkpt>
2074<trkpt lat="50.8868" lon="-1.52639">
2075<time>2005-05-01T18:36:06Z</time>
2076</trkpt>
2077<trkpt lat="50.8871" lon="-1.52639">
2078<time>2005-05-01T18:36:17Z</time>
2079</trkpt>
2080<trkpt lat="50.8872" lon="-1.52635">
2081<time>2005-05-01T18:36:21Z</time>
2082</trkpt>
2083<trkpt lat="50.8875" lon="-1.52633">
2084<time>2005-05-01T18:36:28Z</time>
2085</trkpt>
2086<trkpt lat="50.8876" lon="-1.52628">
2087<time>2005-05-01T18:36:30Z</time>
2088</trkpt>
2089<trkpt lat="50.8877" lon="-1.52624">
2090<time>2005-05-01T18:36:35Z</time>
2091</trkpt>
2092<trkpt lat="50.8878" lon="-1.52631">
2093<time>2005-05-01T18:36:38Z</time>
2094</trkpt>
2095<trkpt lat="50.8879" lon="-1.52633">
2096<time>2005-05-01T18:36:45Z</time>
2097</trkpt>
2098<trkpt lat="50.8881" lon="-1.52628">
2099<time>2005-05-01T18:36:55Z</time>
2100</trkpt>
2101<trkpt lat="50.8885" lon="-1.52652">
2102<time>2005-05-01T18:37:17Z</time>
2103</trkpt>
2104<trkpt lat="50.8889" lon="-1.52643">
2105<time>2005-05-01T18:37:36Z</time>
2106</trkpt>
2107<trkpt lat="50.8893" lon="-1.52633">
2108<time>2005-05-01T18:37:51Z</time>
2109</trkpt>
2110<trkpt lat="50.8897" lon="-1.5262">
2111<time>2005-05-01T18:38:08Z</time>
2112</trkpt>
2113<trkpt lat="50.8899" lon="-1.52609">
2114<time>2005-05-01T18:38:24Z</time>
2115</trkpt>
2116<trkpt lat="50.89" lon="-1.52605">
2117<time>2005-05-01T18:38:29Z</time>
2118</trkpt>
2119<trkpt lat="50.8902" lon="-1.52592">
2120<time>2005-05-01T18:38:39Z</time>
2121</trkpt>
2122<trkpt lat="50.8905" lon="-1.52583">
2123<time>2005-05-01T18:38:51Z</time>
2124</trkpt>
2125<trkpt lat="50.8905" lon="-1.52583">
2126<time>2005-05-01T18:38:52Z</time>
2127</trkpt>
2128<trkpt lat="50.8906" lon="-1.52581">
2129<time>2005-05-01T18:38:57Z</time>
2130</trkpt>
2131<trkpt lat="50.8907" lon="-1.52571">
2132<time>2005-05-01T18:39:02Z</time>
2133</trkpt>
2134<trkpt lat="50.891" lon="-1.52549">
2135<time>2005-05-01T18:39:18Z</time>
2136</trkpt>
2137<trkpt lat="50.8913" lon="-1.52525">
2138<time>2005-05-01T18:39:38Z</time>
2139</trkpt>
2140<trkpt lat="50.8914" lon="-1.52519">
2141<time>2005-05-01T18:39:55Z</time>
2142</trkpt>
2143<trkpt lat="50.8914" lon="-1.5253">
2144<time>2005-05-01T18:40:01Z</time>
2145</trkpt>
2146<trkpt lat="50.8913" lon="-1.52545">
2147<time>2005-05-01T18:40:10Z</time>
2148</trkpt>
2149<trkpt lat="50.891" lon="-1.52566">
2150<time>2005-05-01T18:40:30Z</time>
2151</trkpt>
2152<trkpt lat="50.8906" lon="-1.5259">
2153<time>2005-05-01T18:40:52Z</time>
2154</trkpt>
2155<trkpt lat="50.8904" lon="-1.52607">
2156<time>2005-05-01T18:41:11Z</time>
2157</trkpt>
2158<trkpt lat="50.8901" lon="-1.52626">
2159<time>2005-05-01T18:41:31Z</time>
2160</trkpt>
2161<trkpt lat="50.89" lon="-1.52631">
2162<time>2005-05-01T18:41:46Z</time>
2163</trkpt>
2164<trkpt lat="50.89" lon="-1.52641">
2165<time>2005-05-01T18:42:02Z</time>
2166</trkpt>
2167<trkpt lat="50.89" lon="-1.5265">
2168<time>2005-05-01T18:42:21Z</time>
2169</trkpt>
2170<trkpt lat="50.8901" lon="-1.52648">
2171<time>2005-05-01T18:42:28Z</time>
2172</trkpt>
2173<trkpt lat="50.8902" lon="-1.52635">
2174<time>2005-05-01T18:42:47Z</time>
2175</trkpt>
2176<trkpt lat="50.8902" lon="-1.52635">
2177<time>2005-05-01T18:43:07Z</time>
2178</trkpt>
2179<trkpt lat="50.8904" lon="-1.52622">
2180<time>2005-05-01T18:43:25Z</time>
2181</trkpt>
2182<trkpt lat="50.8905" lon="-1.52613">
2183<time>2005-05-01T18:43:39Z</time>
2184</trkpt>
2185</trkseg>
2186</trk>
2187</gpx>
Note: See TracBrowser for help on using the repository browser.